sensor_id;sensor_type;location;lat;lon;timestamp;pressure;altitude;pressure_sealevel;temperature;humidity
46211;BME280;52144;48.040;-1.594;2022-08-16T00:01:20;100181.56;;;21.35;100.00
46211;BME280;52144;48.040;-1.594;2022-08-16T00:03:50;100177.25;;;21.42;100.00
46211;BME280;52144;48.040;-1.594;2022-08-16T00:06:18;100173.00;;;21.39;100.00
46211;BME280;52144;48.040;-1.594;2022-08-16T00:08:46;100162.28;;;21.20;100.00
46211;BME280;52144;48.040;-1.594;2022-08-16T00:11:14;100166.38;;;21.24;100.00
46211;BME280;52144;48.040;-1.594;2022-08-16T00:13:43;100174.50;;;21.24;100.00
46211;BME280;52144;48.040;-1.594;2022-08-16T00:16:22;100167.41;;;21.23;100.00
46211;BME280;52144;48.040;-1.594;2022-08-16T00:19:10;100167.63;;;21.30;100.00
46211;BME280;52144;48.040;-1.594;2022-08-16T00:21:39;100163.91;;;21.31;100.00
46211;BME280;52144;48.040;-1.594;2022-08-16T00:24:08;100161.91;;;21.33;100.00
46211;BME280;52144;48.040;-1.594;2022-08-16T00:26:38;100177.09;;;21.26;100.00
46211;BME280;52144;48.040;-1.594;2022-08-16T00:29:11;100189.00;;;21.33;100.00
46211;BME280;52144;48.040;-1.594;2022-08-16T00:31:43;100180.88;;;21.33;100.00
46211;BME280;52144;48.040;-1.594;2022-08-16T00:34:31;100169.56;;;21.19;100.00
46211;BME280;52144;48.040;-1.594;2022-08-16T00:37:10;100166.72;;;21.21;100.00
46211;BME280;52144;48.040;-1.594;2022-08-16T00:39:42;100173.06;;;21.30;100.00
46211;BME280;52144;48.040;-1.594;2022-08-16T00:42:10;100188.69;;;21.36;100.00
46211;BME280;52144;48.040;-1.594;2022-08-16T00:44:39;100174.13;;;21.37;100.00
46211;BME280;52144;48.040;-1.594;2022-08-16T00:47:11;100176.16;;;21.35;100.00
46211;BME280;52144;48.040;-1.594;2022-08-16T00:49:43;100171.94;;;21.22;100.00
46211;BME280;52144;48.040;-1.594;2022-08-16T00:52:22;100182.50;;;21.26;100.00
46211;BME280;52144;48.040;-1.594;2022-08-16T00:54:56;100183.06;;;21.29;100.00
46211;BME280;52144;48.040;-1.594;2022-08-16T00:57:25;100180.34;;;21.29;100.00
46211;BME280;52144;48.040;-1.594;2022-08-16T01:00:13;100173.44;;;21.35;100.00
46211;BME280;52144;48.040;-1.594;2022-08-16T01:02:50;100160.69;;;21.27;100.00
46211;BME280;52144;48.040;-1.594;2022-08-16T01:05:18;100163.63;;;21.34;100.00
46211;BME280;52144;48.040;-1.594;2022-08-16T01:07:50;100172.25;;;21.47;100.00
46211;BME280;52144;48.040;-1.594;2022-08-16T01:10:19;100170.41;;;21.48;100.00
46211;BME280;52144;48.040;-1.594;2022-08-16T01:13:02;100171.84;;;21.42;100.00
46211;BME280;52144;48.040;-1.594;2022-08-16T01:15:32;100172.16;;;21.57;100.00
46211;BME280;52144;48.040;-1.594;2022-08-16T01:18:02;100171.81;;;21.70;100.00
46211;BME280;52144;48.040;-1.594;2022-08-16T01:20:34;100165.91;;;21.56;100.00
46211;BME280;52144;48.040;-1.594;2022-08-16T01:23:16;100162.97;;;21.50;100.00
46211;BME280;52144;48.040;-1.594;2022-08-16T01:25:50;100155.28;;;21.45;100.00
46211;BME280;52144;48.040;-1.594;2022-08-16T01:28:39;100157.28;;;21.43;100.00
46211;BME280;52144;48.040;-1.594;2022-08-16T01:31:12;100147.72;;;21.39;100.00
46211;BME280;52144;48.040;-1.594;2022-08-16T01:33:41;100137.91;;;21.38;100.00
46211;BME280;52144;48.040;-1.594;2022-08-16T01:36:10;100132.50;;;21.38;100.00
46211;BME280;52144;48.040;-1.594;2022-08-16T01:38:41;100128.34;;;21.43;100.00
46211;BME280;52144;48.040;-1.594;2022-08-16T01:41:27;100142.75;;;21.44;100.00
46211;BME280;52144;48.040;-1.594;2022-08-16T01:43:56;100139.47;;;21.40;100.00
46211;BME280;52144;48.040;-1.594;2022-08-16T01:46:29;100133.59;;;21.45;100.00
46211;BME280;52144;48.040;-1.594;2022-08-16T01:49:10;100125.22;;;21.38;100.00
46211;BME280;52144;48.040;-1.594;2022-08-16T01:51:42;100114.22;;;21.40;100.00
46211;BME280;52144;48.040;-1.594;2022-08-16T01:54:12;100123.06;;;21.42;100.00
46211;BME280;52144;48.040;-1.594;2022-08-16T01:56:42;100129.94;;;21.36;100.00
46211;BME280;52144;48.040;-1.594;2022-08-16T01:59:12;100128.25;;;21.35;100.00
46211;BME280;52144;48.040;-1.594;2022-08-16T02:01:42;100119.09;;;21.36;100.00
46211;BME280;52144;48.040;-1.594;2022-08-16T02:04:25;100120.34;;;21.42;100.00
46211;BME280;52144;48.040;-1.594;2022-08-16T02:07:13;100125.06;;;21.40;100.00
46211;BME280;52144;48.040;-1.594;2022-08-16T02:09:45;100134.78;;;21.42;100.00
46211;BME280;52144;48.040;-1.594;2022-08-16T02:12:25;100137.19;;;21.46;100.00
46211;BME280;52144;48.040;-1.594;2022-08-16T02:15:14;100123.06;;;21.42;100.00
46211;BME280;52144;48.040;-1.594;2022-08-16T02:17:50;100120.63;;;21.39;100.00
46211;BME280;52144;48.040;-1.594;2022-08-16T02:20:18;100111.66;;;21.38;100.00
46211;BME280;52144;48.040;-1.594;2022-08-16T02:22:52;100115.06;;;21.40;100.00
46211;BME280;52144;48.040;-1.594;2022-08-16T02:25:21;100117.94;;;21.39;100.00
46211;BME280;52144;48.040;-1.594;2022-08-16T02:27:50;100129.09;;;21.36;100.00
46211;BME280;52144;48.040;-1.594;2022-08-16T02:30:22;100121.09;;;21.34;100.00
46211;BME280;52144;48.040;-1.594;2022-08-16T02:33:09;100111.66;;;21.38;100.00
46211;BME280;52144;48.040;-1.594;2022-08-16T02:35:40;100116.25;;;21.38;100.00
46211;BME280;52144;48.040;-1.594;2022-08-16T02:38:19;100114.16;;;21.32;100.00
46211;BME280;52144;48.040;-1.594;2022-08-16T02:40:47;100115.22;;;21.39;100.00
46211;BME280;52144;48.040;-1.594;2022-08-16T02:43:16;100112.13;;;21.34;100.00
46211;BME280;52144;48.040;-1.594;2022-08-16T02:45:44;100112.69;;;21.37;100.00
46211;BME280;52144;48.040;-1.594;2022-08-16T02:48:12;100103.69;;;21.37;100.00
46211;BME280;52144;48.040;-1.594;2022-08-16T02:50:55;100104.97;;;21.42;100.00
46211;BME280;52144;48.040;-1.594;2022-08-16T02:53:39;100103.16;;;21.33;100.00
46211;BME280;52144;48.040;-1.594;2022-08-16T02:56:09;100102.91;;;21.27;100.00
46211;BME280;52144;48.040;-1.594;2022-08-16T02:58:41;100091.56;;;21.23;100.00
46211;BME280;52144;48.040;-1.594;2022-08-16T03:01:10;100095.09;;;21.23;100.00
46211;BME280;52144;48.040;-1.594;2022-08-16T03:03:58;100091.91;;;21.28;100.00
46211;BME280;52144;48.040;-1.594;2022-08-16T03:06:46;100099.50;;;21.24;100.00
46211;BME280;52144;48.040;-1.594;2022-08-16T03:09:16;100101.84;;;21.19;100.00
46211;BME280;52144;48.040;-1.594;2022-08-16T03:11:45;100096.72;;;21.16;100.00
46211;BME280;52144;48.040;-1.594;2022-08-16T03:14:14;100098.72;;;21.14;100.00
46211;BME280;52144;48.040;-1.594;2022-08-16T03:16:50;100081.63;;;21.14;100.00
46211;BME280;52144;48.040;-1.594;2022-08-16T03:19:26;100098.72;;;21.14;100.00
46211;BME280;52144;48.040;-1.594;2022-08-16T03:22:15;100089.66;;;21.06;100.00
46211;BME280;52144;48.040;-1.594;2022-08-16T03:24:54;100080.84;;;21.03;100.00
46211;BME280;52144;48.040;-1.594;2022-08-16T03:27:24;100082.00;;;21.01;100.00
46211;BME280;52144;48.040;-1.594;2022-08-16T03:29:59;100081.47;;;20.97;100.00
46211;BME280;52144;48.040;-1.594;2022-08-16T03:32:43;100088.13;;;21.03;100.00
46211;BME280;52144;48.040;-1.594;2022-08-16T03:35:13;100087.97;;;21.04;100.00
46211;BME280;52144;48.040;-1.594;2022-08-16T03:37:44;100087.97;;;21.04;100.00
46211;BME280;52144;48.040;-1.594;2022-08-16T03:40:30;100093.91;;;21.08;100.00
46211;BME280;52144;48.040;-1.594;2022-08-16T03:42:59;100097.50;;;21.09;100.00
46211;BME280;52144;48.040;-1.594;2022-08-16T03:45:49;100096.19;;;21.13;100.00
46211;BME280;52144;48.040;-1.594;2022-08-16T03:48:20;100092.78;;;21.11;100.00
46211;BME280;52144;48.040;-1.594;2022-08-16T03:51:05;100084.19;;;21.15;100.00
46211;BME280;52144;48.040;-1.594;2022-08-16T03:53:35;100088.22;;;21.11;100.00
46211;BME280;52144;48.040;-1.594;2022-08-16T03:56:04;100089.19;;;21.10;100.00
46211;BME280;52144;48.040;-1.594;2022-08-16T03:58:44;100085.97;;;21.07;100.00
46211;BME280;52144;48.040;-1.594;2022-08-16T04:01:15;100084.56;;;21.02;100.00
46211;BME280;52144;48.040;-1.594;2022-08-16T04:03:43;100094.06;;;20.89;100.00
46211;BME280;52144;48.040;-1.594;2022-08-16T04:06:11;100084.56;;;20.84;100.00
46211;BME280;52144;48.040;-1.594;2022-08-16T04:08:41;100083.06;;;20.90;100.00
46211;BME280;52144;48.040;-1.594;2022-08-16T04:11:10;100085.72;;;21.00;100.00
46211;BME280;52144;48.040;-1.594;2022-08-16T04:13:43;100076.75;;;20.99;100.00
46211;BME280;52144;48.040;-1.594;2022-08-16T04:16:28;100075.56;;;21.02;100.00
46211;BME280;52144;48.040;-1.594;2022-08-16T04:18:59;100083.25;;;21.07;100.00
46211;BME280;52144;48.040;-1.594;2022-08-16T04:21:30;100088.22;;;21.11;100.00
46211;BME280;52144;48.040;-1.594;2022-08-16T04:24:00;100084.47;;;21.12;100.00
46211;BME280;52144;48.040;-1.594;2022-08-16T04:26:28;100083.50;;;21.13;100.00
46211;BME280;52144;48.040;-1.594;2022-08-16T04:28:58;100085.59;;;21.19;100.00
46211;BME280;52144;48.040;-1.594;2022-08-16T04:31:43;100083.16;;;21.16;100.00
46211;BME280;52144;48.040;-1.594;2022-08-16T04:34:11;100075.59;;;21.20;100.00
46211;BME280;52144;48.040;-1.594;2022-08-16T04:36:39;100080.69;;;21.05;100.00
46211;BME280;52144;48.040;-1.594;2022-08-16T04:39:14;100083.88;;;21.18;100.00
46211;BME280;52144;48.040;-1.594;2022-08-16T04:41:42;100077.81;;;21.24;100.00
46211;BME280;52144;48.040;-1.594;2022-08-16T04:44:10;100082.09;;;21.27;100.00
46211;BME280;52144;48.040;-1.594;2022-08-16T04:46:59;100080.53;;;21.24;100.00
46211;BME280;52144;48.040;-1.594;2022-08-16T04:49:46;100079.84;;;21.22;100.00
46211;BME280;52144;48.040;-1.594;2022-08-16T04:52:14;100086.72;;;21.35;100.00
46211;BME280;52144;48.040;-1.594;2022-08-16T04:55:00;100075.31;;;21.23;100.00
46211;BME280;52144;48.040;-1.594;2022-08-16T04:57:29;100074.13;;;21.08;100.00
46211;BME280;52144;48.040;-1.594;2022-08-16T04:59:57;100084.25;;;21.06;100.00
46211;BME280;52144;48.040;-1.594;2022-08-16T05:02:48;100089.91;;;21.12;100.00
46211;BME280;52144;48.040;-1.594;2022-08-16T05:05:21;100084.47;;;21.12;100.00
46211;BME280;52144;48.040;-1.594;2022-08-16T05:07:49;100090.16;;;21.19;100.00
46211;BME280;52144;48.040;-1.594;2022-08-16T05:10:26;100078.91;;;21.14;100.00
46211;BME280;52144;48.040;-1.594;2022-08-16T05:12:55;100072.97;;;21.28;100.00
46211;BME280;52144;48.040;-1.594;2022-08-16T05:15:24;100072.81;;;21.30;100.00
46211;BME280;52144;48.040;-1.594;2022-08-16T05:17:55;100072.88;;;21.38;100.00
46211;BME280;52144;48.040;-1.594;2022-08-16T05:20:25;100076.00;;;21.25;100.00
46211;BME280;52144;48.040;-1.594;2022-08-16T05:23:10;100071.88;;;21.39;100.00
46211;BME280;52144;48.040;-1.594;2022-08-16T05:25:40;100078.94;;;21.32;100.00
46211;BME280;52144;48.040;-1.594;2022-08-16T05:28:14;100076.44;;;21.38;100.00
46211;BME280;52144;48.040;-1.594;2022-08-16T05:30:42;100076.88;;;21.43;100.00
46211;BME280;52144;48.040;-1.594;2022-08-16T05:33:11;100076.00;;;21.43;100.00
46211;BME280;52144;48.040;-1.594;2022-08-16T05:35:43;100086.06;;;21.51;100.00
46211;BME280;52144;48.040;-1.594;2022-08-16T05:38:21;100083.91;;;21.54;100.00
46211;BME280;52144;48.040;-1.594;2022-08-16T05:41:06;100088.13;;;21.57;100.00
46211;BME280;52144;48.040;-1.594;2022-08-16T05:43:35;100086.97;;;21.59;100.00
46211;BME280;52144;48.040;-1.594;2022-08-16T05:46:14;100091.53;;;21.59;100.00
46211;BME280;52144;48.040;-1.594;2022-08-16T05:48:58;100090.00;;;21.56;100.00
46211;BME280;52144;48.040;-1.594;2022-08-16T05:51:35;100096.13;;;21.58;100.00
46211;BME280;52144;48.040;-1.594;2022-08-16T05:54:06;100100.38;;;21.61;100.00
46211;BME280;52144;48.040;-1.594;2022-08-16T05:56:37;100101.22;;;21.61;100.00
46211;BME280;52144;48.040;-1.594;2022-08-16T05:59:06;100106.34;;;21.64;100.00
46211;BME280;52144;48.040;-1.594;2022-08-16T06:01:34;100104.31;;;21.67;100.00
46211;BME280;52144;48.040;-1.594;2022-08-16T06:04:06;100107.03;;;21.67;100.00
46211;BME280;52144;48.040;-1.594;2022-08-16T06:06:54;100100.91;;;21.64;100.00
46211;BME280;52144;48.040;-1.594;2022-08-16T06:09:24;100112.75;;;21.63;100.00
46211;BME280;52144;48.040;-1.594;2022-08-16T06:12:11;100103.56;;;21.56;100.00
46211;BME280;52144;48.040;-1.594;2022-08-16T06:14:54;100103.22;;;21.59;100.00
46211;BME280;52144;48.040;-1.594;2022-08-16T06:17:25;100100.00;;;21.56;100.00
46211;BME280;52144;48.040;-1.594;2022-08-16T06:20:13;100103.34;;;21.50;100.00
46211;BME280;52144;48.040;-1.594;2022-08-16T06:22:44;100107.38;;;21.46;100.00
46211;BME280;52144;48.040;-1.594;2022-08-16T06:25:25;100109.06;;;21.47;100.00
46211;BME280;52144;48.040;-1.594;2022-08-16T06:28:05;100109.81;;;21.57;100.00
46211;BME280;52144;48.040;-1.594;2022-08-16T06:30:36;100114.56;;;21.55;100.00
46211;BME280;52144;48.040;-1.594;2022-08-16T06:33:10;100121.59;;;21.66;100.00
46211;BME280;52144;48.040;-1.594;2022-08-16T06:35:49;100126.56;;;21.70;100.00
46211;BME280;52144;48.040;-1.594;2022-08-16T06:38:24;100136.63;;;21.78;100.00
46211;BME280;52144;48.040;-1.594;2022-08-16T06:41:00;100136.56;;;21.70;100.00
46211;BME280;52144;48.040;-1.594;2022-08-16T06:43:29;100145.38;;;21.72;100.00
46211;BME280;52144;48.040;-1.594;2022-08-16T06:45:57;100139.09;;;21.71;100.00
46211;BME280;52144;48.040;-1.594;2022-08-16T06:48:25;100138.25;;;21.71;100.00
46211;BME280;52144;48.040;-1.594;2022-08-16T06:51:00;100137.34;;;21.62;100.00
46211;BME280;52144;48.040;-1.594;2022-08-16T06:53:28;100141.97;;;21.70;100.00
46211;BME280;52144;48.040;-1.594;2022-08-16T06:56:03;100142.97;;;21.69;100.00
46211;BME280;52144;48.040;-1.594;2022-08-16T06:58:40;100141.66;;;21.73;100.00
46211;BME280;52144;48.040;-1.594;2022-08-16T07:01:10;100145.59;;;21.60;100.00
46211;BME280;52144;48.040;-1.594;2022-08-16T07:03:41;100140.47;;;21.75;100.00
46211;BME280;52144;48.040;-1.594;2022-08-16T07:06:24;100149.22;;;21.87;100.00
46211;BME280;52144;48.040;-1.594;2022-08-16T07:08:52;100147.22;;;21.89;100.00
46211;BME280;52144;48.040;-1.594;2022-08-16T07:11:22;100145.06;;;21.75;100.00
46211;BME280;52144;48.040;-1.594;2022-08-16T07:14:10;100146.50;;;21.87;100.00
46211;BME280;52144;48.040;-1.594;2022-08-16T07:16:54;100148.28;;;21.96;100.00
46211;BME280;52144;48.040;-1.594;2022-08-16T07:19:25;100154.06;;;22.01;100.00
46211;BME280;52144;48.040;-1.594;2022-08-16T07:22:15;100154.56;;;21.97;100.00
46211;BME280;52144;48.040;-1.594;2022-08-16T07:25:05;100154.84;;;21.94;100.00
46211;BME280;52144;48.040;-1.594;2022-08-16T07:27:33;100149.97;;;21.97;100.00
46211;BME280;52144;48.040;-1.594;2022-08-16T07:30:05;100155.94;;;22.01;100.00
46211;BME280;52144;48.040;-1.594;2022-08-16T07:32:54;100145.47;;;22.06;100.00
46211;BME280;52144;48.040;-1.594;2022-08-16T07:35:22;100160.13;;;21.95;100.00
46211;BME280;52144;48.040;-1.594;2022-08-16T07:37:52;100155.09;;;22.00;100.00
46211;BME280;52144;48.040;-1.594;2022-08-16T07:40:19;100155.38;;;22.15;100.00
46211;BME280;52144;48.040;-1.594;2022-08-16T07:43:08;100156.69;;;22.29;100.00
46211;BME280;52144;48.040;-1.594;2022-08-16T07:45:36;100164.72;;;22.39;100.00
46211;BME280;52144;48.040;-1.594;2022-08-16T07:48:08;100170.34;;;22.46;100.00
46211;BME280;52144;48.040;-1.594;2022-08-16T07:50:38;100165.22;;;22.42;100.00
46211;BME280;52144;48.040;-1.594;2022-08-16T07:53:27;100171.31;;;22.36;100.00
46211;BME280;52144;48.040;-1.594;2022-08-16T07:55:56;100164.72;;;22.39;100.00
46211;BME280;52144;48.040;-1.594;2022-08-16T07:58:25;100155.13;;;22.27;100.00
46211;BME280;52144;48.040;-1.594;2022-08-16T08:01:01;100158.63;;;22.19;100.00
46211;BME280;52144;48.040;-1.594;2022-08-16T08:03:35;100158.38;;;22.12;100.00
46211;BME280;52144;48.040;-1.594;2022-08-16T08:06:06;100158.03;;;22.07;100.00
46211;BME280;52144;48.040;-1.594;2022-08-16T08:08:39;100154.13;;;22.10;100.00
46211;BME280;52144;48.040;-1.594;2022-08-16T08:11:18;100150.53;;;22.01;100.00
46211;BME280;52144;48.040;-1.594;2022-08-16T08:13:49;100146.97;;;22.00;100.00
46211;BME280;52144;48.040;-1.594;2022-08-16T08:16:19;100145.19;;;21.91;100.00
46211;BME280;52144;48.040;-1.594;2022-08-16T08:18:57;100138.69;;;22.10;100.00
46211;BME280;52144;48.040;-1.594;2022-08-16T08:21:26;100135.59;;;22.23;100.00
46211;BME280;52144;48.040;-1.594;2022-08-16T08:24:16;100126.06;;;22.19;100.00
46211;BME280;52144;48.040;-1.594;2022-08-16T08:26:43;100136.59;;;22.22;100.00
46211;BME280;52144;48.040;-1.594;2022-08-16T08:29:16;100127.44;;;22.23;100.00
46211;BME280;52144;48.040;-1.594;2022-08-16T08:31:50;100152.78;;;22.32;100.00
46211;BME280;52144;48.040;-1.594;2022-08-16T08:34:19;100164.25;;;22.43;100.00
46211;BME280;52144;48.040;-1.594;2022-08-16T08:36:49;100150.09;;;22.32;100.00
46211;BME280;52144;48.040;-1.594;2022-08-16T08:39:21;100171.09;;;22.12;100.00
46211;BME280;52144;48.040;-1.594;2022-08-16T08:41:49;100169.59;;;21.91;100.00
46211;BME280;52144;48.040;-1.594;2022-08-16T08:44:18;100174.78;;;22.02;100.00
46211;BME280;52144;48.040;-1.594;2022-08-16T08:46:57;100164.34;;;22.16;100.00
46211;BME280;52144;48.040;-1.594;2022-08-16T08:49:28;100168.09;;;22.33;100.00
46211;BME280;52144;48.040;-1.594;2022-08-16T08:52:16;100163.16;;;22.36;100.00
46211;BME280;52144;48.040;-1.594;2022-08-16T08:55:03;100159.94;;;22.33;100.00
46211;BME280;52144;48.040;-1.594;2022-08-16T08:57:37;100155.56;;;22.22;100.00
46211;BME280;52144;48.040;-1.594;2022-08-16T09:00:07;100157.06;;;22.16;100.00
46211;BME280;52144;48.040;-1.594;2022-08-16T09:02:40;100151.59;;;22.60;100.00
46211;BME280;52144;48.040;-1.594;2022-08-16T09:05:10;100139.47;;;22.81;100.00
46211;BME280;52144;48.040;-1.594;2022-08-16T09:07:42;100146.19;;;23.03;100.00
46211;BME280;52144;48.040;-1.594;2022-08-16T09:10:29;100166.63;;;23.15;100.00
46211;BME280;52144;48.040;-1.594;2022-08-16T09:12:59;100166.28;;;23.10;100.00
46211;BME280;52144;48.040;-1.594;2022-08-16T09:15:28;100176.78;;;23.05;97.28
46211;BME280;52144;48.040;-1.594;2022-08-16T09:17:59;100177.88;;;23.29;99.68
46211;BME280;52144;48.040;-1.594;2022-08-16T09:20:48;100171.25;;;22.89;96.75
46211;BME280;52144;48.040;-1.594;2022-08-16T09:23:27;100171.44;;;22.95;100.00
46211;BME280;52144;48.040;-1.594;2022-08-16T09:26:04;100170.34;;;23.14;100.00
46211;BME280;52144;48.040;-1.594;2022-08-16T09:28:53;100182.66;;;23.35;99.11
46211;BME280;52144;48.040;-1.594;2022-08-16T09:31:41;100176.56;;;23.49;95.70
46211;BME280;52144;48.040;-1.594;2022-08-16T09:34:10;100174.19;;;23.62;97.63
46211;BME280;52144;48.040;-1.594;2022-08-16T09:36:44;100171.25;;;23.39;96.78
46211;BME280;52144;48.040;-1.594;2022-08-16T09:39:12;100181.16;;;23.65;95.61
46211;BME280;52144;48.040;-1.594;2022-08-16T09:41:43;100169.81;;;23.78;97.71
46211;BME280;52144;48.040;-1.594;2022-08-16T09:44:20;100172.81;;;23.58;97.24
46211;BME280;52144;48.040;-1.594;2022-08-16T09:47:09;100182.06;;;23.90;96.38
46211;BME280;52144;48.040;-1.594;2022-08-16T09:49:38;100179.84;;;23.94;95.04
46211;BME280;52144;48.040;-1.594;2022-08-16T09:52:07;100184.41;;;23.85;93.29
46211;BME280;52144;48.040;-1.594;2022-08-16T09:54:37;100189.19;;;23.91;95.00
46211;BME280;52144;48.040;-1.594;2022-08-16T09:57:11;100190.47;;;23.46;96.07
46211;BME280;52144;48.040;-1.594;2022-08-16T09:59:40;100190.16;;;23.49;97.85
46211;BME280;52144;48.040;-1.594;2022-08-16T10:02:08;100192.59;;;23.85;96.84
46211;BME280;52144;48.040;-1.594;2022-08-16T10:04:54;100199.72;;;24.27;92.81
46211;BME280;52144;48.040;-1.594;2022-08-16T10:07:23;100205.50;;;24.57;92.97
46211;BME280;52144;48.040;-1.594;2022-08-16T10:09:51;100213.16;;;24.45;92.85
46211;BME280;52144;48.040;-1.594;2022-08-16T10:12:24;100199.22;;;23.99;89.05
46211;BME280;52144;48.040;-1.594;2022-08-16T10:15:12;100203.13;;;23.80;87.31
46211;BME280;52144;48.040;-1.594;2022-08-16T10:17:42;100213.97;;;23.63;87.93
46211;BME280;52144;48.040;-1.594;2022-08-16T10:20:26;100213.81;;;23.73;88.24
46211;BME280;52144;48.040;-1.594;2022-08-16T10:22:54;100209.94;;;23.92;87.18
46211;BME280;52144;48.040;-1.594;2022-08-16T10:25:31;100206.47;;;24.64;84.64
46211;BME280;52144;48.040;-1.594;2022-08-16T10:28:21;100205.59;;;25.19;80.27
46211;BME280;52144;48.040;-1.594;2022-08-16T10:30:56;100203.44;;;24.59;81.91
46211;BME280;52144;48.040;-1.594;2022-08-16T10:33:25;100207.19;;;24.33;78.91
46211;BME280;52144;48.040;-1.594;2022-08-16T10:35:56;100202.06;;;23.73;82.37
46211;BME280;52144;48.040;-1.594;2022-08-16T10:38:29;100198.69;;;24.03;85.33
46211;BME280;52144;48.040;-1.594;2022-08-16T10:40:58;100196.66;;;23.97;83.07
46211;BME280;52144;48.040;-1.594;2022-08-16T10:43:28;100209.44;;;23.97;83.09
46211;BME280;52144;48.040;-1.594;2022-08-16T10:45:56;100211.63;;;24.51;83.13
46211;BME280;52144;48.040;-1.594;2022-08-16T10:48:27;100226.06;;;25.15;77.44
46211;BME280;52144;48.040;-1.594;2022-08-16T10:50:57;100220.72;;;24.82;76.96
46211;BME280;52144;48.040;-1.594;2022-08-16T10:53:25;100227.03;;;25.31;77.85
46211;BME280;52144;48.040;-1.594;2022-08-16T10:56:00;100223.31;;;25.23;75.58
46211;BME280;52144;48.040;-1.594;2022-08-16T10:58:32;100214.47;;;25.21;71.76
46211;BME280;52144;48.040;-1.594;2022-08-16T11:01:00;100226.03;;;25.23;73.71
46211;BME280;52144;48.040;-1.594;2022-08-16T11:03:48;100211.59;;;25.46;74.65
46211;BME280;52144;48.040;-1.594;2022-08-16T11:06:23;100224.69;;;25.59;75.82
46211;BME280;52144;48.040;-1.594;2022-08-16T11:08:54;100227.31;;;25.44;74.47
46211;BME280;52144;48.040;-1.594;2022-08-16T11:11:44;100243.06;;;26.11;73.50
46211;BME280;52144;48.040;-1.594;2022-08-16T11:14:33;100240.13;;;25.98;70.49
46211;BME280;52144;48.040;-1.594;2022-08-16T11:17:05;100246.47;;;26.13;72.54
46211;BME280;52144;48.040;-1.594;2022-08-16T11:19:34;100239.53;;;25.79;71.80
46211;BME280;52144;48.040;-1.594;2022-08-16T11:22:22;100242.00;;;26.58;67.99
46211;BME280;52144;48.040;-1.594;2022-08-16T11:25:12;100234.31;;;25.70;69.49
46211;BME280;52144;48.040;-1.594;2022-08-16T11:28:01;100245.13;;;25.86;70.68
46211;BME280;52144;48.040;-1.594;2022-08-16T11:30:31;100248.44;;;25.02;66.74
46211;BME280;52144;48.040;-1.594;2022-08-16T11:33:04;100253.34;;;25.07;70.51
46211;BME280;52144;48.040;-1.594;2022-08-16T11:35:32;100262.34;;;24.52;69.92
46211;BME280;52144;48.040;-1.594;2022-08-16T11:38:21;100258.00;;;25.38;69.09
46211;BME280;52144;48.040;-1.594;2022-08-16T11:41:09;100268.63;;;25.33;68.94
46211;BME280;52144;48.040;-1.594;2022-08-16T11:43:39;100266.13;;;25.07;68.95
46211;BME280;52144;48.040;-1.594;2022-08-16T11:46:12;100261.16;;;25.27;69.56
46211;BME280;52144;48.040;-1.594;2022-08-16T11:49:00;100254.00;;;25.09;70.50
46211;BME280;52144;48.040;-1.594;2022-08-16T11:51:29;100251.72;;;25.37;69.53
46211;BME280;52144;48.040;-1.594;2022-08-16T11:53:57;100259.97;;;25.60;68.62
46211;BME280;52144;48.040;-1.594;2022-08-16T11:56:24;100268.03;;;24.98;70.60
46211;BME280;52144;48.040;-1.594;2022-08-16T11:59:12;100251.31;;;25.01;70.82
46211;BME280;52144;48.040;-1.594;2022-08-16T12:01:42;100257.31;;;25.75;68.68
46211;BME280;52144;48.040;-1.594;2022-08-16T12:04:26;100248.28;;;25.75;69.05
46211;BME280;52144;48.040;-1.594;2022-08-16T12:06:55;100255.66;;;25.66;64.80
46211;BME280;52144;48.040;-1.594;2022-08-16T12:09:23;100260.34;;;25.49;68.29
46211;BME280;52144;48.040;-1.594;2022-08-16T12:11:55;100259.81;;;25.85;67.47
46211;BME280;52144;48.040;-1.594;2022-08-16T12:14:23;100271.69;;;26.61;63.25
46211;BME280;52144;48.040;-1.594;2022-08-16T12:16:58;100263.03;;;26.73;65.29
46211;BME280;52144;48.040;-1.594;2022-08-16T12:19:28;100254.09;;;26.56;64.66
46211;BME280;52144;48.040;-1.594;2022-08-16T12:22:01;100266.00;;;26.25;64.16
46211;BME280;52144;48.040;-1.594;2022-08-16T12:24:32;100255.06;;;25.79;65.75
46211;BME280;52144;48.040;-1.594;2022-08-16T12:27:00;100266.59;;;26.35;64.33
46211;BME280;52144;48.040;-1.594;2022-08-16T12:29:28;100259.25;;;26.89;61.29
46211;BME280;52144;48.040;-1.594;2022-08-16T12:31:58;100262.09;;;27.25;61.19
46211;BME280;52144;48.040;-1.594;2022-08-16T12:34:45;100252.56;;;26.76;60.65
46211;BME280;52144;48.040;-1.594;2022-08-16T12:37:18;100262.38;;;27.15;59.38
46211;BME280;52144;48.040;-1.594;2022-08-16T12:39:46;100251.84;;;27.64;60.60
46211;BME280;52144;48.040;-1.594;2022-08-16T12:42:16;100255.69;;;27.18;59.12
46211;BME280;52144;48.040;-1.594;2022-08-16T12:44:46;100249.09;;;27.64;57.45
46211;BME280;52144;48.040;-1.594;2022-08-16T12:47:17;100255.78;;;27.76;58.10
46211;BME280;52144;48.040;-1.594;2022-08-16T12:50:04;100257.97;;;28.24;58.11
46211;BME280;52144;48.040;-1.594;2022-08-16T12:52:35;100257.94;;;27.80;58.84
46211;BME280;52144;48.040;-1.594;2022-08-16T12:55:10;100258.38;;;27.63;57.53
46211;BME280;52144;48.040;-1.594;2022-08-16T12:57:40;100251.91;;;28.07;59.13
46211;BME280;52144;48.040;-1.594;2022-08-16T13:00:12;100250.47;;;28.54;56.34
46211;BME280;52144;48.040;-1.594;2022-08-16T13:02:53;100254.56;;;29.06;54.72
46211;BME280;52144;48.040;-1.594;2022-08-16T13:05:22;100252.00;;;28.98;55.15
46211;BME280;52144;48.040;-1.594;2022-08-16T13:07:50;100240.28;;;28.05;54.71
46211;BME280;52144;48.040;-1.594;2022-08-16T13:10:19;100244.97;;;28.32;53.12